Terminal Aerodrome Forecast
Issued by NWS Charleston, WV

Current Version | Previous Version | Graphics & Text | Print | Product List | Glossary On
Versions: 1 2 3 4 5 6 7 8 9 10 11 12 13 14 15 16 17 18 19 20 21 22 23 24 25 26 27 28 29 30
650
FTUS41 KRLX 210547
TAFHTS
TAF
KHTS 210547Z 2106/2206 16002KT P6SM BKN050
     FM211000 00000KT 4SM BR SCT050 BKN250
     FM211300 16004KT P6SM SCT035 BKN250
     FM211600 19006KT P6SM BKN040
     FM220000 17003KT P6SM BKN070=

USA.gov is the U.S. government's official web portal to all federal, state and local government web resources and services.